createdAt,value
2023-04-11T00:03:29.262Z,2.00
2023-04-11T00:07:11.399Z,1.42
2023-04-11T00:10:53.276Z,1.58
2023-04-11T00:14:35.254Z,1.58
2023-04-11T00:18:17.144Z,1.90
2023-04-11T00:22:00.606Z,1.40
2023-04-11T00:25:42.597Z,1.90
2023-04-11T00:29:24.516Z,1.75
2023-04-11T00:33:06.578Z,1.33
2023-04-11T00:36:48.995Z,1.23
2023-04-11T00:40:31.333Z,2.22
2023-04-11T00:44:14.010Z,1.30
2023-04-11T00:47:56.191Z,1.48
2023-04-11T00:51:38.467Z,1.42
2023-04-11T00:55:21.380Z,1.50
2023-04-11T00:59:03.486Z,1.60
2023-04-11T01:02:45.567Z,1.63
2023-04-11T01:06:31.051Z,1.50
2023-04-11T01:10:13.902Z,1.50
2023-04-11T01:13:55.893Z,1.70
2023-04-11T01:17:37.919Z,1.10
2023-04-11T01:21:21.060Z,1.55
2023-04-11T01:25:04.940Z,1.08
2023-04-11T01:28:46.891Z,1.55
2023-04-11T01:32:28.873Z,1.95
2023-04-11T01:36:11.271Z,1.40
2023-04-11T01:39:53.556Z,1.30
2023-04-11T01:43:35.506Z,1.88
2023-04-11T01:47:17.893Z,1.25
2023-04-11T01:50:59.888Z,1.73
2023-04-11T01:54:41.828Z,1.23
2023-04-11T01:58:23.736Z,1.50
2023-04-11T02:02:05.948Z,1.75
2023-04-11T02:05:48.056Z,1.40
2023-04-11T02:09:29.952Z,1.27
2023-04-11T02:13:12.004Z,1.85
2023-04-11T02:16:55.780Z,2.47
2023-04-11T02:20:38.021Z,2.17
2023-04-11T02:24:19.914Z,1.80
2023-04-11T02:28:01.926Z,1.80
2023-04-11T02:31:43.914Z,2.15
2023-04-11T02:35:26.382Z,1.50
2023-04-11T02:39:08.331Z,1.13
2023-04-11T02:42:50.845Z,1.88
2023-04-11T02:46:32.852Z,1.20
2023-04-11T02:50:14.915Z,1.70
2023-04-11T02:53:57.043Z,1.50
2023-04-11T02:57:39.325Z,1.63
2023-04-11T03:01:24.923Z,1.58
2023-04-11T03:05:07.684Z,1.48
2023-04-11T03:08:50.197Z,1.70
2023-04-11T03:12:32.109Z,1.73
2023-04-11T03:16:14.779Z,0.95
2023-04-11T03:19:56.681Z,1.05
2023-04-11T03:23:39.475Z,0.80
2023-04-11T03:27:21.331Z,0.57
2023-04-11T03:31:03.382Z,0.80
2023-04-11T03:34:45.469Z,0.70
2023-04-11T03:38:27.331Z,0.70
2023-04-11T03:42:09.324Z,0.70
2023-04-11T03:45:52.113Z,0.98
2023-04-11T03:49:34.119Z,0.60
2023-04-11T03:53:16.056Z,0.82
2023-04-11T03:56:58.138Z,0.50
2023-04-11T04:00:40.128Z,0.57
2023-04-11T04:04:22.108Z,0.65
2023-04-11T04:08:04.305Z,0.65
2023-04-11T04:11:46.163Z,0.65
2023-04-11T04:15:28.081Z,0.77
2023-04-11T04:19:09.970Z,0.77
2023-04-11T04:22:53.955Z,0.60
2023-04-11T04:26:38.110Z,0.68
2023-04-11T04:30:22.139Z,1.30
2023-04-11T04:34:08.726Z,1.08
2023-04-11T04:37:50.950Z,0.95
2023-04-11T04:41:34.322Z,1.00
2023-04-11T04:45:16.390Z,1.38
2023-04-11T04:48:59.550Z,1.10
2023-04-11T04:52:42.810Z,1.35
2023-04-11T04:56:24.661Z,1.20
2023-04-11T05:00:12.102Z,1.30
2023-04-11T05:04:01.540Z,1.13
2023-04-11T05:07:45.309Z,0.90
2023-04-11T05:11:28.575Z,1.30
2023-04-11T05:15:11.826Z,1.23
2023-04-11T05:18:53.795Z,1.30
2023-04-11T05:22:36.650Z,1.23
2023-04-11T05:26:18.588Z,1.27
2023-04-11T05:30:01.223Z,1.17
2023-04-11T05:33:43.470Z,1.30
2023-04-11T05:37:26.292Z,1.40
2023-04-11T05:41:09.217Z,1.10
2023-04-11T05:44:51.180Z,1.45
2023-04-11T05:48:33.235Z,1.83
2023-04-11T05:52:15.155Z,1.27
2023-04-11T05:55:57.381Z,1.35
2023-04-11T05:59:39.430Z,1.50
2023-04-11T06:03:21.953Z,1.45
2023-04-11T06:07:04.510Z,1.30
2023-04-11T06:10:46.607Z,1.63
2023-04-11T06:14:28.519Z,1.30
2023-04-11T06:18:10.436Z,1.45
2023-04-11T06:21:52.381Z,1.17
2023-04-11T06:25:34.280Z,1.25
2023-04-11T06:29:16.263Z,1.33
2023-04-11T06:32:58.682Z,1.02
2023-04-11T06:36:42.774Z,1.40
2023-04-11T06:40:24.764Z,1.13
2023-04-11T06:44:07.029Z,2.38
2023-04-11T06:47:50.334Z,1.17
2023-04-11T06:51:32.460Z,1.50
2023-04-11T06:55:15.638Z,1.60
2023-04-11T06:58:57.791Z,1.20
2023-04-11T07:02:39.946Z,1.83
2023-04-11T07:06:22.177Z,1.17
2023-04-11T07:10:05.332Z,0.98
2023-04-11T07:13:47.309Z,1.20
2023-04-11T07:17:29.596Z,1.13
2023-04-11T07:21:13.639Z,1.30
2023-04-11T07:24:57.517Z,0.90
2023-04-11T07:28:40.450Z,1.35
2023-04-11T07:32:22.417Z,1.02
2023-04-11T07:36:05.943Z,1.00
2023-04-11T07:39:48.954Z,1.13
2023-04-11T07:43:31.399Z,1.13
2023-04-11T07:47:13.315Z,0.80
2023-04-11T07:50:55.375Z,1.10
2023-04-11T07:54:37.516Z,1.27
2023-04-11T07:58:19.434Z,1.00
2023-04-11T08:02:02.442Z,1.00
2023-04-11T08:05:44.562Z,1.40
2023-04-11T08:09:27.763Z,1.23
2023-04-11T08:13:09.702Z,1.05
2023-04-11T08:16:53.188Z,1.80
2023-04-11T08:20:35.383Z,1.10
2023-04-11T08:24:17.516Z,1.30
2023-04-11T08:27:59.668Z,1.33
2023-04-11T08:31:45.630Z,1.40
2023-04-11T08:35:27.910Z,1.23
2023-04-11T08:39:09.835Z,1.55
2023-04-11T08:42:59.077Z,1.52
2023-04-11T08:46:42.679Z,1.23
2023-04-11T08:50:24.871Z,1.13
2023-04-11T08:54:08.867Z,1.20
2023-04-11T08:57:50.764Z,1.85
2023-04-11T09:01:34.244Z,1.67
2023-04-11T09:05:41.479Z,1.60
2023-04-11T09:09:31.514Z,1.40
2023-04-11T09:13:22.471Z,2.03
2023-04-11T09:17:13.255Z,1.73
2023-04-11T09:21:05.894Z,1.20
2023-04-11T09:25:02.568Z,1.85
2023-04-11T09:28:54.600Z,1.67
2023-04-11T09:32:36.726Z,1.52
2023-04-11T09:36:21.344Z,1.30
2023-04-11T09:40:05.721Z,1.90
2023-04-11T09:43:58.412Z,1.80
2023-04-11T09:47:41.798Z,1.83
2023-04-11T09:51:35.274Z,1.42
2023-04-11T09:55:22.931Z,1.35
2023-04-11T09:59:05.518Z,1.40
2023-04-11T10:02:50.304Z,1.65
2023-04-11T10:06:41.233Z,1.77
2023-04-11T10:10:24.822Z,1.42
2023-04-11T10:14:06.758Z,1.40
2023-04-11T10:18:09.230Z,1.58
2023-04-11T10:21:51.617Z,1.67
2023-04-11T10:26:08.272Z,1.80
2023-04-11T10:29:52.060Z,1.45
2023-04-11T10:33:36.195Z,1.40
2023-04-11T10:37:31.133Z,1.63
2023-04-11T10:41:27.747Z,1.83
2023-04-11T10:45:22.219Z,1.40
2023-04-11T10:49:05.493Z,1.40
2023-04-11T10:52:47.910Z,2.20
2023-04-11T10:56:56.214Z,1.55
2023-04-11T11:00:48.131Z,1.40
2023-04-11T11:04:34.659Z,1.80
2023-04-11T11:08:27.283Z,1.77
2023-04-11T11:12:15.136Z,2.08
2023-04-11T11:15:57.954Z,1.83
2023-04-11T11:19:45.026Z,1.90
2023-04-11T11:23:30.843Z,1.30
2023-04-11T11:27:20.396Z,2.08
2023-04-11T11:31:04.075Z,1.93
2023-04-11T11:34:46.216Z,1.48
2023-04-11T11:38:30.284Z,1.35
2023-04-11T11:42:12.480Z,1.33
2023-04-11T11:46:09.332Z,1.05
2023-04-11T11:49:52.236Z,1.10
2023-04-11T11:53:34.280Z,1.15
2023-04-11T11:57:25.050Z,1.10
2023-04-11T12:01:07.039Z,1.20
2023-04-11T12:04:49.399Z,1.20
2023-04-11T12:08:33.827Z,2.55
2023-04-11T12:12:17.776Z,1.48
2023-04-11T12:16:03.899Z,1.65
2023-04-11T12:19:45.875Z,1.33
2023-04-11T12:23:28.540Z,1.60
2023-04-11T12:27:12.720Z,1.83
2023-04-11T12:30:54.629Z,1.67
2023-04-11T12:34:36.555Z,1.65
2023-04-11T12:38:18.483Z,1.65
2023-04-11T12:42:00.490Z,1.27
2023-04-11T12:45:42.619Z,1.35
2023-04-11T12:49:24.582Z,1.17
2023-04-11T12:53:06.516Z,1.13
2023-04-11T12:56:48.430Z,1.20
2023-04-11T13:00:30.885Z,1.27
2023-04-11T13:04:13.414Z,0.82
2023-04-11T13:07:55.593Z,1.60
2023-04-11T13:11:37.960Z,1.10
2023-04-11T13:15:19.899Z,1.42
2023-04-11T13:19:02.053Z,1.02
2023-04-11T13:22:44.388Z,1.63
2023-04-11T13:26:26.818Z,1.23
2023-04-11T13:30:10.847Z,0.88
2023-04-11T13:33:53.562Z,1.20
2023-04-11T13:37:35.552Z,1.30
2023-04-11T13:41:17.761Z,2.75
2023-04-11T13:44:59.740Z,1.00
2023-04-11T13:48:41.740Z,1.00
2023-04-11T13:52:23.872Z,1.40
2023-04-11T13:56:07.219Z,0.80
2023-04-11T13:59:49.116Z,0.80
2023-04-11T14:03:33.737Z,1.33
2023-04-11T14:07:16.217Z,1.10
2023-04-11T14:10:58.195Z,0.75
2023-04-11T14:14:40.138Z,1.02
2023-04-11T14:18:22.121Z,0.77
2023-04-11T14:22:04.298Z,0.70
2023-04-11T14:25:47.255Z,0.90
2023-04-11T14:29:34.537Z,1.08
2023-04-11T14:33:16.752Z,1.02
2023-04-11T14:36:58.847Z,0.80
2023-04-11T14:40:41.567Z,0.77
2023-04-11T14:44:23.537Z,0.85
2023-04-11T14:48:05.906Z,1.35
2023-04-11T14:51:48.100Z,1.00
2023-04-11T14:55:30.052Z,0.73
2023-04-11T14:59:11.996Z,1.05
2023-04-11T15:02:56.320Z,0.98
2023-04-11T15:06:38.460Z,0.88
2023-04-11T15:10:23.415Z,1.17
2023-04-11T15:14:05.280Z,0.80
2023-04-11T15:17:49.756Z,1.10
2023-04-11T15:21:34.852Z,0.88
2023-04-11T15:25:17.015Z,0.75
2023-04-11T15:28:58.921Z,1.10
2023-04-11T15:32:44.250Z,0.90
2023-04-11T15:36:26.297Z,1.10
2023-04-11T15:40:12.237Z,1.00
2023-04-11T15:43:54.550Z,1.00
2023-04-11T15:47:36.857Z,0.90
2023-04-11T15:51:18.920Z,1.30
2023-04-11T15:55:00.923Z,1.00
2023-04-11T15:58:42.826Z,1.20
2023-04-11T16:02:24.978Z,1.10
2023-04-11T16:06:07.491Z,2.17
2023-04-11T16:09:50.080Z,1.10
2023-04-11T16:13:32.184Z,1.00
2023-04-11T16:17:19.161Z,1.00
2023-04-11T16:21:01.096Z,0.88
2023-04-11T16:24:43.832Z,0.98
2023-04-11T16:28:25.814Z,1.00
2023-04-11T16:32:08.038Z,1.00
2023-04-11T16:35:50.259Z,0.90
2023-04-11T16:39:32.210Z,1.30
2023-04-11T16:43:14.128Z,1.20
2023-04-11T16:46:56.327Z,1.40
2023-04-11T16:50:38.757Z,1.63
2023-04-11T16:54:20.687Z,1.30
2023-04-11T16:58:02.556Z,0.93
2023-04-11T17:01:45.182Z,1.38
2023-04-11T17:05:27.502Z,1.20
2023-04-11T17:09:09.862Z,0.93
2023-04-11T17:12:51.768Z,0.90
2023-04-11T17:16:33.702Z,1.00
2023-04-11T17:20:16.410Z,1.00
2023-04-11T17:23:58.457Z,0.98
2023-04-11T17:27:41.245Z,1.40
2023-04-11T17:31:23.289Z,1.83
2023-04-11T17:35:06.744Z,1.30
2023-04-11T17:38:49.324Z,1.33
2023-04-11T17:42:31.308Z,1.40
2023-04-11T17:46:14.238Z,0.90
2023-04-11T17:49:57.304Z,1.15
2023-04-11T17:53:39.442Z,1.05
2023-04-11T17:57:21.375Z,0.80
2023-04-11T18:01:04.604Z,1.40
2023-04-11T18:04:46.936Z,0.90
2023-04-11T18:08:46.839Z,1.00
2023-04-11T18:12:31.800Z,0.77
2023-04-11T18:16:13.815Z,1.13
2023-04-11T18:19:57.129Z,0.70
2023-04-11T18:23:39.590Z,0.88
2023-04-11T18:27:22.072Z,1.20
2023-04-11T18:31:04.945Z,1.10
2023-04-11T18:34:47.230Z,0.90
2023-04-11T18:38:29.235Z,1.05
2023-04-11T18:42:11.128Z,0.80
2023-04-11T18:45:53.109Z,1.00
2023-04-11T18:49:36.040Z,1.27
2023-04-11T18:53:18.240Z,1.67
2023-04-11T18:57:00.447Z,1.67
2023-04-11T19:00:42.596Z,1.58
2023-04-11T19:04:24.918Z,1.65
2023-04-11T19:08:07.284Z,1.77
2023-04-11T19:11:49.207Z,2.58
2023-04-11T19:15:31.196Z,1.95
2023-04-11T19:19:13.111Z,1.80
2023-04-11T19:22:55.591Z,1.70
2023-04-11T19:26:37.570Z,1.70
2023-04-11T19:30:19.758Z,1.83
2023-04-11T19:34:04.482Z,1.90
2023-04-11T19:37:46.650Z,1.23
2023-04-11T19:41:28.633Z,1.55
2023-04-11T19:45:11.672Z,2.05
2023-04-11T19:48:55.038Z,1.70
2023-04-11T19:52:37.006Z,1.80
2023-04-11T19:56:18.850Z,2.17
2023-04-11T20:00:01.291Z,1.90
2023-04-11T20:03:43.345Z,1.60
2023-04-11T20:07:25.569Z,1.80
2023-04-11T20:11:07.495Z,1.60
2023-04-11T20:14:49.546Z,1.48
2023-04-11T20:18:31.703Z,1.90
2023-04-11T20:22:18.424Z,1.67
2023-04-11T20:26:00.351Z,2.00
2023-04-11T20:29:42.489Z,2.10
2023-04-11T20:33:24.956Z,2.17
2023-04-11T20:37:07.888Z,1.85
2023-04-11T20:40:50.055Z,2.42
2023-04-11T20:44:34.875Z,2.30
2023-04-11T20:48:16.786Z,2.40
2023-04-11T20:52:00.224Z,2.67
2023-04-11T20:55:42.164Z,1.80
2023-04-11T20:59:24.090Z,1.50
2023-04-11T21:03:06.543Z,2.15
2023-04-11T21:06:49.805Z,2.38
2023-04-11T21:10:31.789Z,1.95
2023-04-11T21:14:13.787Z,1.67
2023-04-11T21:17:55.814Z,2.67
2023-04-11T21:21:39.588Z,1.80
2023-04-11T21:25:22.487Z,2.10
2023-04-11T21:29:04.447Z,1.77
2023-04-11T21:32:46.668Z,1.85
2023-04-11T21:36:28.796Z,3.05
2023-04-11T21:40:11.286Z,3.05
2023-04-11T21:43:53.193Z,2.20
2023-04-11T21:47:35.170Z,2.10
2023-04-11T21:51:17.305Z,2.30
2023-04-11T21:54:59.353Z,2.58
2023-04-11T21:58:41.264Z,2.25
2023-04-11T22:02:23.721Z,1.88
2023-04-11T22:06:06.284Z,2.40
2023-04-11T22:09:48.198Z,2.00
2023-04-11T22:13:30.705Z,2.83
2023-04-11T22:17:12.680Z,2.35
2023-04-11T22:20:54.664Z,2.45
2023-04-11T22:24:38.308Z,2.58
2023-04-11T22:28:22.201Z,2.40
2023-04-11T22:32:04.357Z,2.70
2023-04-11T22:35:47.795Z,2.80
2023-04-11T22:39:30.245Z,2.25
2023-04-11T22:43:12.423Z,2.92
2023-04-11T22:47:04.012Z,2.05
2023-04-11T22:50:52.736Z,2.28
2023-04-11T22:54:35.342Z,2.65
2023-04-11T22:58:17.322Z,2.35
2023-04-11T23:01:59.253Z,2.30
2023-04-11T23:05:42.340Z,2.00
2023-04-11T23:09:24.256Z,1.98
2023-04-11T23:13:06.489Z,2.08
2023-04-11T23:16:48.741Z,2.63
2023-04-11T23:20:31.243Z,2.08
2023-04-11T23:24:13.312Z,2.63
2023-04-11T23:27:55.195Z,2.10
2023-04-11T23:31:37.092Z,2.10
2023-04-11T23:35:19.503Z,1.90
2023-04-11T23:39:02.219Z,2.17
2023-04-11T23:42:44.854Z,2.10
2023-04-11T23:46:27.179Z,2.72
2023-04-11T23:50:11.043Z,2.10
2023-04-11T23:53:52.995Z,2.15
2023-04-11T23:57:35.118Z,2.10
